Time;durP1;ratioP1;P1;durP2;ratioP2;P2;SDS_P1;SDS_P2;PMS_P1;PMS_P2;Temp;Humidity;BMP_temperature;BMP_pressure;BME280_temperature;BME280_humidity;BME280_pressure;Samples;Min_cycle;Max_cycle;Signal;HPM_P1;HPM_P2
2023/06/09 00:03:58;;;;;;;16.90;11.57;;;;;;;;;;8275484;28;20061;-92
2023/06/09 00:08:02;;;;;;;15.48;11.88;;;;;;;;;;8277645;28;20058;-92
2023/06/09 00:12:07;;;;;;;13.13;10.20;;;;;;;;;;8293753;28;20046;-91
2023/06/09 00:16:12;;;;;;;13.30;10.32;;;;;;;;;;8286383;28;20050;-91
2023/06/09 00:20:15;;;;;;;13.88;10.80;;;;;;;;;;8275878;28;20133;-92
2023/06/09 00:24:20;;;;;;;14.27;11.48;;;;;;;;;;8275195;28;20082;-92
2023/06/09 00:28:22;;;;;;;14.77;10.38;;;;;;;;;;8283785;28;20099;-92
2023/06/09 00:32:27;;;;;;;14.27;11.00;;;;;;;;;;8284829;28;20509;-92
2023/06/09 00:36:30;;;;;;;13.32;10.27;;;;;;;;;;8259552;28;20561;-92
2023/06/09 00:40:33;;;;;;;12.90;10.15;;;;;;;;;;8280010;28;20097;-92
2023/06/09 00:44:36;;;;;;;14.32;11.70;;;;;;;;;;8291792;28;20058;-90
2023/06/09 00:48:41;;;;;;;16.27;11.20;;;;;;;;;;8294875;28;20053;-91
2023/06/09 00:52:47;;;;;;;14.82;11.27;;;;;;;;;;8279230;28;20058;-90
2023/06/09 00:56:51;;;;;;;16.85;11.32;;;;;;;;;;8290312;28;20064;-90
2023/06/09 01:00:57;;;;;;;14.75;12.07;;;;;;;;;;8279863;28;20050;-91
2023/06/09 01:05:02;;;;;;;16.60;12.45;;;;;;;;;;8271711;28;20085;-90
2023/06/09 01:09:14;;;;;;;16.73;12.27;;;;;;;;;;8279139;28;20559;-90
2023/06/09 01:13:25;;;;;;;19.08;13.63;;;;;;;;;;8280492;28;20100;-93
2023/06/09 01:17:32;;;;;;;21.00;15.23;;;;;;;;;;8281278;28;20054;-94
2023/06/09 01:21:44;;;;;;;18.33;14.27;;;;;;;;;;8280852;28;20399;-91
2023/06/09 01:25:50;;;;;;;20.08;14.13;;;;;;;;;;8279301;28;20567;-90
2023/06/09 01:29:55;;;;;;;19.70;13.50;;;;;;;;;;8291087;28;20054;-91
2023/06/09 01:33:58;;;;;;;19.17;14.02;;;;;;;;;;8279690;28;20546;-93
2023/06/09 01:38:01;;;;;;;19.80;13.70;;;;;;;;;;8275818;28;20046;-92
2023/06/09 01:42:07;;;;;;;22.48;15.32;;;;;;;;;;8260803;28;20056;-92
2023/06/09 01:46:10;;;;;;;20.20;15.88;;;;;;;;;;8298318;28;20141;-95
2023/06/09 01:50:22;;;;;;;20.92;14.95;;;;;;;;;;8285984;28;20062;-92
2023/06/09 01:54:31;;;;;;;21.73;15.18;;;;;;;;;;8287864;28;20054;-91
2023/06/09 01:58:42;;;;;;;23.05;15.30;;;;;;;;;;8279371;28;20060;-92
2023/06/09 02:02:48;;;;;;;20.88;15.02;;;;;;;;;;8285031;28;20058;-96
2023/06/09 02:06:52;;;;;;;18.95;13.38;;;;;;;;;;8285053;28;20045;-91
2023/06/09 02:10:58;;;;;;;16.70;12.95;;;;;;;;;;8466964;23;20049;-92
2023/06/09 02:15:04;;;;;;;18.10;13.02;;;;;;;;;;8286860;28;20060;-96
2023/06/09 02:19:07;;;;;;;18.02;13.77;;;;;;;;;;8282115;28;20078;-93
2023/06/09 02:23:11;;;;;;;16.70;14.15;;;;;;;;;;8298247;28;20132;-91
2023/06/09 02:27:14;;;;;;;15.77;12.35;;;;;;;;;;8287730;28;20042;-90
2023/06/09 02:31:18;;;;;;;15.60;12.00;;;;;;;;;;8275323;28;20144;-91
2023/06/09 02:35:21;;;;;;;17.80;13.13;;;;;;;;;;8283066;28;20181;-90
2023/06/09 02:39:24;;;;;;;15.60;12.45;;;;;;;;;;8284664;28;20141;-92
2023/06/09 02:43:27;;;;;;;20.00;12.27;;;;;;;;;;8270576;28;20143;-90
2023/06/09 02:47:31;;;;;;;15.77;12.10;;;;;;;;;;8283376;28;20079;-90
2023/06/09 02:51:34;;;;;;;16.30;12.30;;;;;;;;;;8283609;28;20081;-89
2023/06/09 02:55:38;;;;;;;15.40;12.68;;;;;;;;;;8282574;28;20516;-93
2023/06/09 02:59:41;;;;;;;20.40;12.65;;;;;;;;;;8293699;28;20145;-91
2023/06/09 03:03:48;;;;;;;17.35;12.57;;;;;;;;;;8286025;28;20050;-93
2023/06/09 03:07:51;;;;;;;15.45;11.90;;;;;;;;;;8292197;28;20050;-94
2023/06/09 03:11:54;;;;;;;14.70;10.70;;;;;;;;;;8290226;28;20062;-90
2023/06/09 03:15:57;;;;;;;13.48;11.27;;;;;;;;;;8302834;28;20060;-91
2023/06/09 03:20:05;;;;;;;14.05;11.40;;;;;;;;;;8289474;28;20133;-91
2023/06/09 03:24:08;;;;;;;14.75;11.98;;;;;;;;;;8283736;28;20415;-91
2023/06/09 03:28:11;;;;;;;14.93;11.38;;;;;;;;;;8283706;28;20061;-91
2023/06/09 03:32:14;;;;;;;18.83;12.02;;;;;;;;;;8289885;28;20065;-90
2023/06/09 03:36:18;;;;;;;14.15;12.20;;;;;;;;;;8281354;28;20059;-90
2023/06/09 03:40:21;;;;;;;16.60;12.10;;;;;;;;;;8282604;28;20137;-92
2023/06/09 03:44:24;;;;;;;15.13;12.23;;;;;;;;;;8278349;28;20056;-92
2023/06/09 03:48:27;;;;;;;16.77;12.50;;;;;;;;;;8285062;28;20093;-90
2023/06/09 03:52:33;;;;;;;20.98;14.98;;;;;;;;;;8288961;28;20058;-94
2023/06/09 03:56:40;;;;;;;17.50;14.02;;;;;;;;;;8286197;28;20057;-94
2023/06/09 04:00:45;;;;;;;14.68;11.30;;;;;;;;;;8299090;28;20037;-91
2023/06/09 04:04:48;;;;;;;16.30;11.57;;;;;;;;;;8288146;28;20511;-91
2023/06/09 04:08:53;;;;;;;14.27;10.90;;;;;;;;;;8299465;28;20451;-90
2023/06/09 04:12:56;;;;;;;13.57;10.90;;;;;;;;;;8290098;28;20459;-90
2023/06/09 04:16:59;;;;;;;14.77;11.57;;;;;;;;;;8286962;28;20148;-90
2023/06/09 04:21:02;;;;;;;15.93;10.98;;;;;;;;;;8271783;28;20129;-90
2023/06/09 04:25:07;;;;;;;13.90;10.32;;;;;;;;;;8282923;28;20130;-90
2023/06/09 04:29:10;;;;;;;12.70;9.65;;;;;;;;;;8287706;28;20141;-91
2023/06/09 04:33:13;;;;;;;11.43;9.60;;;;;;;;;;8297685;28;20073;-90
2023/06/09 04:37:16;;;;;;;12.98;10.85;;;;;;;;;;8293198;28;20462;-91
2023/06/09 04:41:21;;;;;;;12.25;10.93;;;;;;;;;;8286631;28;20490;-90
2023/06/09 04:45:27;;;;;;;14.02;9.50;;;;;;;;;;8276490;28;20189;-90
2023/06/09 04:49:31;;;;;;;11.07;9.30;;;;;;;;;;8273213;28;20045;-91
2023/06/09 04:53:34;;;;;;;12.90;9.60;;;;;;;;;;8295775;28;20129;-91
2023/06/09 04:57:39;;;;;;;10.30;9.07;;;;;;;;;;8286695;28;20061;-90
2023/06/09 05:01:46;;;;;;;10.13;8.98;;;;;;;;;;8277338;28;20049;-91
2023/06/09 05:05:49;;;;;;;11.07;9.43;;;;;;;;;;8272232;28;20447;-91
2023/06/09 05:09:52;;;;;;;11.48;8.25;;;;;;;;;;8277800;28;20053;-91
2023/06/09 05:13:57;;;;;;;14.25;10.65;;;;;;;;;;8273344;28;20130;-90
2023/06/09 05:18:00;;;;;;;18.85;8.55;;;;;;;;;;8285535;28;20157;-90
2023/06/09 05:22:03;;;;;;;12.88;8.43;;;;;;;;;;8279979;28;20053;-90
2023/06/09 05:26:06;;;;;;;11.10;7.80;;;;;;;;;;8285368;28;20078;-89
2023/06/09 05:30:11;;;;;;;11.68;8.52;;;;;;;;;;8281917;28;20125;-92
2023/06/09 05:34:14;;;;;;;10.50;8.23;;;;;;;;;;8267685;28;20058;-89
2023/06/09 05:38:17;;;;;;;12.57;8.35;;;;;;;;;;8285906;28;20058;-89
2023/06/09 05:42:20;;;;;;;20.80;12.80;;;;;;;;;;8268851;28;20480;-90
2023/06/09 05:46:24;;;;;;;10.25;8.60;;;;;;;;;;8284035;28;20133;-89
2023/06/09 05:50:27;;;;;;;11.50;8.30;;;;;;;;;;8270769;28;20649;-90
2023/06/09 05:54:30;;;;;;;11.13;8.27;;;;;;;;;;8291646;28;20196;-92
2023/06/09 05:58:34;;;;;;;12.38;8.50;;;;;;;;;;8290830;28;20049;-88
2023/06/09 06:02:39;;;;;;;14.40;9.30;;;;;;;;;;8292150;28;20053;-92
2023/06/09 06:06:42;;;;;;;10.65;8.85;;;;;;;;;;8285529;28;20149;-92
2023/06/09 06:10:45;;;;;;;9.20;7.82;;;;;;;;;;8284188;28;20395;-87
2023/06/09 06:14:48;;;;;;;9.50;7.68;;;;;;;;;;8280265;28;20057;-89
2023/06/09 06:18:53;;;;;;;13.00;9.15;;;;;;;;;;8273661;28;20141;-94
2023/06/09 06:22:57;;;;;;;13.95;8.77;;;;;;;;;;8280891;28;20413;-94
2023/06/09 06:27:01;;;;;;;13.43;8.65;;;;;;;;;;8283260;28;20525;-89
2023/06/09 06:31:04;;;;;;;10.77;8.55;;;;;;;;;;8277374;28;20077;-90
2023/06/09 06:35:09;;;;;;;11.50;7.78;;;;;;;;;;8268249;28;20137;-90
2023/06/09 06:39:15;;;;;;;10.23;8.65;;;;;;;;;;8269880;28;20066;-91
2023/06/09 06:43:18;;;;;;;9.35;8.20;;;;;;;;;;8289467;28;20062;-91
2023/06/09 06:47:21;;;;;;;15.18;9.38;;;;;;;;;;8281394;28;20144;-93
2023/06/09 06:51:26;;;;;;;12.23;9.38;;;;;;;;;;8274639;28;20089;-92
2023/06/09 06:55:30;;;;;;;12.90;9.65;;;;;;;;;;8288418;28;20057;-90
2023/06/09 06:59:33;;;;;;;14.95;9.65;;;;;;;;;;8294078;28;20081;-96
2023/06/09 07:03:39;;;;;;;10.77;8.13;;;;;;;;;;8289179;28;20134;-90
2023/06/09 07:07:45;;;;;;;13.20;8.70;;;;;;;;;;8268577;28;20521;-91
2023/06/09 07:11:49;;;;;;;14.65;8.90;;;;;;;;;;8288793;28;20056;-93
2023/06/09 07:15:52;;;;;;;14.15;9.25;;;;;;;;;;8284740;28;20055;-90
2023/06/09 07:19:55;;;;;;;17.73;11.18;;;;;;;;;;8278478;28;20054;-90
2023/06/09 07:23:59;;;;;;;10.10;8.73;;;;;;;;;;8274900;28;20524;-89
2023/06/09 07:28:02;;;;;;;10.43;8.57;;;;;;;;;;8273639;28;20054;-90
2023/06/09 07:32:06;;;;;;;11.65;8.18;;;;;;;;;;8274303;28;20138;-88
2023/06/09 07:36:11;;;;;;;14.20;9.80;;;;;;;;;;8282088;28;20104;-90
2023/06/09 07:40:16;;;;;;;12.25;8.82;;;;;;;;;;8267037;28;20475;-91
2023/06/09 07:44:20;;;;;;;10.93;8.95;;;;;;;;;;8282441;28;20054;-91
2023/06/09 07:48:23;;;;;;;11.82;7.40;;;;;;;;;;8273405;28;20148;-90
2023/06/09 07:52:26;;;;;;;11.95;8.88;;;;;;;;;;8270442;28;20046;-91
2023/06/09 07:56:31;;;;;;;11.63;9.10;;;;;;;;;;8267470;28;20058;-90
2023/06/09 08:00:35;;;;;;;10.82;8.63;;;;;;;;;;8275237;28;20077;-90
2023/06/09 08:04:39;;;;;;;11.45;9.13;;;;;;;;;;8288484;28;20061;-89
2023/06/09 08:08:43;;;;;;;12.00;9.20;;;;;;;;;;8278174;28;20046;-90
2023/06/09 08:12:50;;;;;;;11.45;9.70;;;;;;;;;;8289058;28;20058;-91
2023/06/09 08:16:54;;;;;;;11.50;10.30;;;;;;;;;;8276945;28;20092;-91
2023/06/09 08:20:57;;;;;;;14.10;11.02;;;;;;;;;;8250161;28;20057;-90
2023/06/09 08:25:00;;;;;;;12.60;10.95;;;;;;;;;;8278350;28;20085;-95
2023/06/09 08:29:06;;;;;;;16.67;11.02;;;;;;;;;;8266529;28;20062;-92
2023/06/09 08:33:10;;;;;;;16.95;11.98;;;;;;;;;;8265246;28;20524;-91
2023/06/09 08:37:15;;;;;;;16.23;13.95;;;;;;;;;;8277307;28;20510;-93
2023/06/09 08:41:22;;;;;;;16.58;14.38;;;;;;;;;;8280707;28;20146;-93
2023/06/09 08:45:35;;;;;;;18.92;13.40;;;;;;;;;;8278144;28;20049;-92
2023/06/09 08:49:48;;;;;;;12.77;11.48;;;;;;;;;;8272820;28;20419;-92
2023/06/09 08:53:54;;;;;;;15.38;13.70;;;;;;;;;;8257533;28;20054;-92
2023/06/09 08:57:57;;;;;;;13.68;11.35;;;;;;;;;;8271057;28;20086;-92
2023/06/09 09:02:04;;;;;;;13.98;11.93;;;;;;;;;;8273990;28;20046;-92
2023/06/09 09:06:09;;;;;;;15.40;11.88;;;;;;;;;;8285228;28;20054;-92
2023/06/09 09:10:12;;;;;;;13.43;11.75;;;;;;;;;;8279294;28;20053;-91
2023/06/09 09:14:16;;;;;;;13.45;11.50;;;;;;;;;;8276971;28;20111;-90
2023/06/09 09:18:22;;;;;;;11.77;10.20;;;;;;;;;;8280361;28;20058;-92
2023/06/09 09:22:29;;;;;;;11.05;8.20;;;;;;;;;;8279366;28;20661;-92
2023/06/09 09:26:33;;;;;;;11.75;8.48;;;;;;;;;;8269786;28;20043;-91
2023/06/09 09:30:46;;;;;;;11.82;8.68;;;;;;;;;;8273492;28;20086;-95
2023/06/09 09:34:50;;;;;;;10.60;8.80;;;;;;;;;;8265953;28;20090;-91
2023/06/09 09:38:56;;;;;;;10.18;7.75;;;;;;;;;;8275891;28;20081;-90
2023/06/09 09:43:03;;;;;;;9.32;7.63;;;;;;;;;;8272621;28;20133;-91
2023/06/09 09:47:12;;;;;;;11.00;7.53;;;;;;;;;;8264135;28;20141;-89
2023/06/09 09:51:27;;;;;;;10.70;8.27;;;;;;;;;;8276733;28;20610;-92
2023/06/09 09:55:36;;;;;;;11.40;8.25;;;;;;;;;;8271654;28;20156;-94
2023/06/09 09:59:42;;;;;;;11.10;7.45;;;;;;;;;;8289505;28;20054;-93
2023/06/09 10:03:53;;;;;;;16.00;8.75;;;;;;;;;;8277365;28;20057;-96
2023/06/09 10:08:26;;;;;;;10.10;7.82;;;;;;;;;;8262965;28;20176;-93
2023/06/09 10:12:35;;;;;;;8.77;7.85;;;;;;;;;;8215542;28;20106;-95
2023/06/09 10:16:40;;;;;;;10.93;7.72;;;;;;;;;;8221293;28;20086;-94
2023/06/09 10:20:45;;;;;;;13.35;7.90;;;;;;;;;;8212881;28;20151;-96
2023/06/09 10:24:58;;;;;;;11.18;7.90;;;;;;;;;;8217700;28;20153;-95
2023/06/09 10:29:02;;;;;;;9.75;8.02;;;;;;;;;;8241796;28;20051;-94
2023/06/09 10:33:13;;;;;;;13.23;7.65;;;;;;;;;;8214737;28;20304;-94
2023/06/09 10:37:29;;;;;;;9.45;7.55;;;;;;;;;;8221630;28;20077;-93
2023/06/09 10:41:38;;;;;;;8.43;6.65;;;;;;;;;;8210158;28;20075;-92
2023/06/09 10:45:52;;;;;;;11.90;7.65;;;;;;;;;;8226191;28;20093;-94
2023/06/09 10:49:55;;;;;;;10.13;7.07;;;;;;;;;;8225684;28;20101;-96
2023/06/09 10:54:22;;;;;;;14.70;6.82;;;;;;;;;;8230559;28;20063;-95
2023/06/09 10:58:37;;;;;;;9.27;6.47;;;;;;;;;;8211829;28;20039;-93
2023/06/09 11:02:42;;;;;;;10.82;6.80;;;;;;;;;;8222136;28;20058;-94
2023/06/09 11:07:11;;;;;;;8.38;6.22;;;;;;;;;;8244630;28;20098;-93
2023/06/09 11:11:16;;;;;;;10.68;6.47;;;;;;;;;;8272423;28;20570;-93
2023/06/09 11:15:21;;;;;;;7.93;6.25;;;;;;;;;;8297056;28;20050;-92
2023/06/09 11:19:24;;;;;;;9.50;6.30;;;;;;;;;;8291014;28;20062;-90
2023/06/09 11:23:27;;;;;;;10.27;6.38;;;;;;;;;;8276947;28;20540;-95
2023/06/09 11:27:31;;;;;;;9.70;6.43;;;;;;;;;;8292671;28;20136;-94
2023/06/09 11:31:53;;;;;;;9.40;6.38;;;;;;;;;;8291861;28;20065;-90
2023/06/09 11:35:59;;;;;;;10.45;5.57;;;;;;;;;;8310856;28;20054;-95
2023/06/09 11:44:37;;;;;;;9.30;5.60;;;;;;;;;;8298031;28;20423;-93
2023/06/09 11:48:59;;;;;;;8.27;5.50;;;;;;;;;;8276650;28;20137;-90
2023/06/09 11:53:09;;;;;;;9.15;5.60;;;;;;;;;;8297151;28;20483;-94
2023/06/09 12:12:45;;;;;;;10.48;4.78;;;;;;;;;;8168554;29;20060;-95
2023/06/09 12:26:16;;;;;;;;;;;;;;;;;;8172427;29;20055;-93
2023/06/09 12:30:37;;;;;;;9.98;4.50;;;;;;;;;;8133171;29;19934;-92
2023/06/09 12:34:50;;;;;;;8.05;4.50;;;;;;;;;;8214982;28;20139;-94
2023/06/09 12:38:53;;;;;;;8.30;4.68;;;;;;;;;;8215941;28;20490;-93
2023/06/09 12:43:09;;;;;;;6.80;4.10;;;;;;;;;;8218098;28;20518;-95
2023/06/09 12:47:16;;;;;;;9.05;4.57;;;;;;;;;;8212869;28;20062;-88
2023/06/09 12:51:19;;;;;;;8.52;4.15;;;;;;;;;;8200403;28;20074;-87
2023/06/09 12:55:22;;;;;;;5.80;4.10;;;;;;;;;;8218643;28;20486;-88
2023/06/09 12:59:27;;;;;;;8.15;4.80;;;;;;;;;;8275475;28;20058;-89
2023/06/09 13:03:50;;;;;;;8.55;4.63;;;;;;;;;;8280791;28;20043;-85
2023/06/09 13:07:57;;;;;;;6.57;4.80;;;;;;;;;;8264939;28;20046;-87
2023/06/09 13:12:00;;;;;;;6.93;4.80;;;;;;;;;;8279716;28;20085;-89
2023/06/09 13:16:06;;;;;;;7.00;4.55;;;;;;;;;;8275160;28;20058;-88
2023/06/09 13:20:10;;;;;;;7.25;5.25;;;;;;;;;;8241372;28;20054;-86
2023/06/09 13:24:14;;;;;;;9.73;5.20;;;;;;;;;;8288579;28;20046;-86
2023/06/09 13:28:20;;;;;;;9.35;5.07;;;;;;;;;;8285738;28;20080;-88
2023/06/09 13:32:24;;;;;;;6.88;4.32;;;;;;;;;;8271607;28;20054;-89
2023/06/09 13:36:28;;;;;;;6.28;4.32;;;;;;;;;;8284037;28;20172;-88
2023/06/09 13:40:33;;;;;;;8.07;4.57;;;;;;;;;;8280903;28;20112;-88
2023/06/09 13:44:39;;;;;;;7.88;4.40;;;;;;;;;;8297786;28;20060;-89
2023/06/09 13:48:44;;;;;;;7.43;4.35;;;;;;;;;;8285266;28;20100;-89
2023/06/09 13:52:58;;;;;;;5.63;3.95;;;;;;;;;;8286588;28;20050;-86
2023/06/09 13:57:02;;;;;;;7.07;3.83;;;;;;;;;;8289601;28;20583;-89
2023/06/09 14:01:05;;;;;;;9.07;3.78;;;;;;;;;;8278882;28;20698;-88
2023/06/09 14:05:12;;;;;;;6.93;4.10;;;;;;;;;;8294294;28;20053;-89
2023/06/09 14:09:15;;;;;;;7.22;4.18;;;;;;;;;;8282978;28;20050;-89
2023/06/09 16:11:25;;;;;;;28.02;22.52;;;;;;;;;;8200269;28;20150;-93
2023/06/09 16:21:46;;;;;;;8.90;5.22;;;;;;;;;;8104697;29;20140;-89
2023/06/09 16:26:35;;;;;;;11.40;7.65;;;;;;;;;;8074177;29;20108;-87
2023/06/09 16:31:17;;;;;;;19.70;10.90;;;;;;;;;;8074781;29;20149;-87
2023/06/09 16:53:04;;;;;;;;;;;;;;;;;;;;;
2023/06/09 16:58:13;;;;;;;;;;;;;;;;;;;;;
2023/06/09 17:02:54;;;;;;;18.05;8.88;;;;;;;;;;8155165;29;20051;-87
2023/06/09 17:33:28;;;;;;;10.23;6.40;;;;;;;;;;8852567;23;20320;-86
2023/06/09 18:07:46;;;;;;;10.90;7.40;;;;;;;;;;8242402;28;20133;-88
2023/06/09 18:12:25;;;;;;;9.43;7.50;;;;;;;;;;8231317;28;20062;-87
2023/06/09 18:28:15;;;;;;;10.13;7.40;;;;;;;;;;8048103;29;20061;-87
2023/06/09 18:54:32;;;;;;;11.85;8.07;;;;;;;;;;7931309;29;20105;-88
2023/06/09 19:04:31;;;;;;;14.07;10.50;;;;;;;;;;8026667;28;19935;-93
